sensor_id;sensor_type;location;lat;lon;timestamp;pressure;altitude;pressure_sealevel;temperature
68911;BMP180;55953;51.650;-0.522;2023-02-15T00:00:13;101797.20;;;1.78
68911;BMP180;55953;51.650;-0.522;2023-02-15T00:03:01;101794.00;;;1.80
68911;BMP180;55953;51.650;-0.522;2023-02-15T00:05:30;101797.00;;;1.80
68911;BMP180;55953;51.650;-0.522;2023-02-15T00:07:58;101794.80;;;1.80
68911;BMP180;55953;51.650;-0.522;2023-02-15T00:10:26;101789.00;;;1.84
68911;BMP180;55953;51.650;-0.522;2023-02-15T00:12:54;101790.60;;;1.88
68911;BMP180;55953;51.650;-0.522;2023-02-15T00:15:22;101788.40;;;1.90
68911;BMP180;55953;51.650;-0.522;2023-02-15T00:17:50;101790.00;;;1.90
68911;BMP180;55953;51.650;-0.522;2023-02-15T00:20:18;101778.40;;;1.78
68911;BMP180;55953;51.650;-0.522;2023-02-15T00:22:46;101778.60;;;1.70
68911;BMP180;55953;51.650;-0.522;2023-02-15T00:25:14;101776.80;;;1.72
68911;BMP180;55953;51.650;-0.522;2023-02-15T00:27:42;101768.60;;;1.80
68911;BMP180;55953;51.650;-0.522;2023-02-15T00:30:11;101764.40;;;1.80
68911;BMP180;55953;51.650;-0.522;2023-02-15T00:32:39;101758.00;;;1.80
68911;BMP180;55953;51.650;-0.522;2023-02-15T00:35:07;101750.40;;;1.80
68911;BMP180;55953;51.650;-0.522;2023-02-15T00:37:36;101749.60;;;1.90
68911;BMP180;55953;51.650;-0.522;2023-02-15T00:40:05;101748.60;;;1.92
68911;BMP180;55953;51.650;-0.522;2023-02-15T00:42:33;101745.00;;;1.86
68911;BMP180;55953;51.650;-0.522;2023-02-15T00:45:01;101746.00;;;1.80
68911;BMP180;55953;51.650;-0.522;2023-02-15T00:47:29;101743.80;;;1.80
68911;BMP180;55953;51.650;-0.522;2023-02-15T00:49:57;101737.60;;;1.80
68911;BMP180;55953;51.650;-0.522;2023-02-15T00:52:25;101736.20;;;1.80
68911;BMP180;55953;51.650;-0.522;2023-02-15T00:54:53;101733.40;;;1.80
68911;BMP180;55953;51.650;-0.522;2023-02-15T00:57:21;101729.20;;;1.80
68911;BMP180;55953;51.650;-0.522;2023-02-15T00:59:49;101734.20;;;1.88
68911;BMP180;55953;51.650;-0.522;2023-02-15T01:02:18;101725.80;;;1.80
68911;BMP180;55953;51.650;-0.522;2023-02-15T01:04:46;101722.60;;;1.80
68911;BMP180;55953;51.650;-0.522;2023-02-15T01:07:16;101720.00;;;1.80
68911;BMP180;55953;51.650;-0.522;2023-02-15T01:09:44;101721.60;;;1.80
68911;BMP180;55953;51.650;-0.522;2023-02-15T01:12:11;101718.20;;;1.80
68911;BMP180;55953;51.650;-0.522;2023-02-15T01:14:39;101717.60;;;1.80
68911;BMP180;55953;51.650;-0.522;2023-02-15T01:17:07;101713.80;;;1.90
68911;BMP180;55953;51.650;-0.522;2023-02-15T01:19:35;101709.80;;;1.84
68911;BMP180;55953;51.650;-0.522;2023-02-15T01:22:03;101708.80;;;1.86
68911;BMP180;55953;51.650;-0.522;2023-02-15T01:24:34;101706.80;;;1.80
68911;BMP180;55953;51.650;-0.522;2023-02-15T01:27:02;101700.20;;;1.80
68911;BMP180;55953;51.650;-0.522;2023-02-15T01:29:30;101692.20;;;1.90
68911;BMP180;55953;51.650;-0.522;2023-02-15T01:31:58;101688.60;;;2.00
68911;BMP180;55953;51.650;-0.522;2023-02-15T01:34:26;101682.20;;;2.00
68911;BMP180;55953;51.650;-0.522;2023-02-15T01:36:54;101676.80;;;2.00
68911;BMP180;55953;51.650;-0.522;2023-02-15T01:39:22;101673.20;;;2.00
68911;BMP180;55953;51.650;-0.522;2023-02-15T01:41:51;101664.20;;;2.00
68911;BMP180;55953;51.650;-0.522;2023-02-15T01:50:57;101659.00;;;1.92
68911;BMP180;55953;51.650;-0.522;2023-02-15T01:53:29;101647.60;;;1.90
68911;BMP180;55953;51.650;-0.522;2023-02-15T01:56:06;101645.40;;;1.90
68911;BMP180;55953;51.650;-0.522;2023-02-15T01:58:36;101647.20;;;1.90
68911;BMP180;55953;51.650;-0.522;2023-02-15T02:01:07;101645.60;;;1.98
68911;BMP180;55953;51.650;-0.522;2023-02-15T02:06:14;101638.80;;;1.90
68911;BMP180;55953;51.650;-0.522;2023-02-15T02:08:43;101636.00;;;1.80
68911;BMP180;55953;51.650;-0.522;2023-02-15T02:11:13;101634.40;;;1.80
68911;BMP180;55953;51.650;-0.522;2023-02-15T02:13:44;101632.40;;;1.86
68911;BMP180;55953;51.650;-0.522;2023-02-15T02:17:00;101639.20;;;1.80
68911;BMP180;55953;51.650;-0.522;2023-02-15T02:23:09;101636.80;;;1.80
68911;BMP180;55953;51.650;-0.522;2023-02-15T02:32:23;101637.00;;;1.90
68911;BMP180;55953;51.650;-0.522;2023-02-15T02:35:22;101637.00;;;1.90
68911;BMP180;55953;51.650;-0.522;2023-02-15T02:44:10;101631.20;;;1.70
68911;BMP180;55953;51.650;-0.522;2023-02-15T02:49:36;101623.60;;;1.64
68911;BMP180;55953;51.650;-0.522;2023-02-15T02:52:33;101620.80;;;1.60
68911;BMP180;55953;51.650;-0.522;2023-02-15T02:54:56;101622.20;;;1.50
68911;BMP180;55953;51.650;-0.522;2023-02-15T02:57:27;101621.20;;;1.40
68911;BMP180;55953;51.650;-0.522;2023-02-15T02:59:59;101615.40;;;1.40
68911;BMP180;55953;51.650;-0.522;2023-02-15T03:02:41;101614.80;;;1.30
68911;BMP180;55953;51.650;-0.522;2023-02-15T03:05:18;101616.40;;;1.30
68911;BMP180;55953;51.650;-0.522;2023-02-15T03:07:50;101615.80;;;1.30
68911;BMP180;55953;51.650;-0.522;2023-02-15T03:10:23;101610.00;;;1.40
68911;BMP180;55953;51.650;-0.522;2023-02-15T03:12:53;101608.60;;;1.50
68911;BMP180;55953;51.650;-0.522;2023-02-15T03:15:26;101605.60;;;1.40
68911;BMP180;55953;51.650;-0.522;2023-02-15T03:18:20;101609.00;;;1.40
68911;BMP180;55953;51.650;-0.522;2023-02-15T03:20:51;101597.20;;;1.40
68911;BMP180;55953;51.650;-0.522;2023-02-15T03:23:23;101592.80;;;1.40
68911;BMP180;55953;51.650;-0.522;2023-02-15T03:25:59;101589.80;;;1.38
68911;BMP180;55953;51.650;-0.522;2023-02-15T03:28:42;101582.00;;;1.38
68911;BMP180;55953;51.650;-0.522;2023-02-15T03:31:14;101568.40;;;1.30
68911;BMP180;55953;51.650;-0.522;2023-02-15T03:34:04;101560.60;;;1.20
68911;BMP180;55953;51.650;-0.522;2023-02-15T03:44:06;101555.40;;;1.30
68911;BMP180;55953;51.650;-0.522;2023-02-15T03:46:39;101553.20;;;1.42
68911;BMP180;55953;51.650;-0.522;2023-02-15T03:49:20;101548.20;;;1.50
68911;BMP180;55953;51.650;-0.522;2023-02-15T03:51:54;101543.80;;;1.50
68911;BMP180;55953;51.650;-0.522;2023-02-15T03:54:30;101548.80;;;1.46
68911;BMP180;55953;51.650;-0.522;2023-02-15T03:57:26;101538.80;;;1.40
68911;BMP180;55953;51.650;-0.522;2023-02-15T04:00:22;101545.40;;;1.40
68911;BMP180;55953;51.650;-0.522;2023-02-15T04:05:44;101530.00;;;1.30
68911;BMP180;55953;51.650;-0.522;2023-02-15T04:08:12;101531.00;;;1.30
68911;BMP180;55953;51.650;-0.522;2023-02-15T04:10:41;101527.20;;;1.30
68911;BMP180;55953;51.650;-0.522;2023-02-15T04:13:30;101527.20;;;1.20
68911;BMP180;55953;51.650;-0.522;2023-02-15T04:15:59;101520.00;;;1.30
68911;BMP180;55953;51.650;-0.522;2023-02-15T04:18:40;101518.00;;;1.40
68911;BMP180;55953;51.650;-0.522;2023-02-15T04:21:29;101518.20;;;1.40
68911;BMP180;55953;51.650;-0.522;2023-02-15T04:24:17;101524.60;;;1.50
68911;BMP180;55953;51.650;-0.522;2023-02-15T04:27:05;101524.40;;;1.46
68911;BMP180;55953;51.650;-0.522;2023-02-15T04:29:33;101521.60;;;1.40
68911;BMP180;55953;51.650;-0.522;2023-02-15T04:32:01;101527.60;;;1.40
68911;BMP180;55953;51.650;-0.522;2023-02-15T04:34:30;101520.60;;;1.40
68911;BMP180;55953;51.650;-0.522;2023-02-15T04:36:58;101518.00;;;1.44
68911;BMP180;55953;51.650;-0.522;2023-02-15T04:39:25;101518.20;;;1.40
68911;BMP180;55953;51.650;-0.522;2023-02-15T04:41:53;101502.40;;;1.40
68911;BMP180;55953;51.650;-0.522;2023-02-15T04:44:21;101505.00;;;1.48
68911;BMP180;55953;51.650;-0.522;2023-02-15T04:46:49;101501.60;;;1.40
68911;BMP180;55953;51.650;-0.522;2023-02-15T04:49:17;101499.20;;;1.40
68911;BMP180;55953;51.650;-0.522;2023-02-15T04:51:45;101499.80;;;1.30
68911;BMP180;55953;51.650;-0.522;2023-02-15T04:54:13;101502.80;;;1.20
68911;BMP180;55953;51.650;-0.522;2023-02-15T04:56:42;101503.40;;;1.22
68911;BMP180;55953;51.650;-0.522;2023-02-15T04:59:10;101505.40;;;1.30
68911;BMP180;55953;51.650;-0.522;2023-02-15T05:01:38;101496.80;;;1.30
68911;BMP180;55953;51.650;-0.522;2023-02-15T05:04:07;101492.20;;;1.40
68911;BMP180;55953;51.650;-0.522;2023-02-15T05:06:35;101493.00;;;1.36
68911;BMP180;55953;51.650;-0.522;2023-02-15T05:09:03;101497.60;;;1.40
68911;BMP180;55953;51.650;-0.522;2023-02-15T05:11:31;101493.40;;;1.40
68911;BMP180;55953;51.650;-0.522;2023-02-15T05:13:59;101488.00;;;1.40
68911;BMP180;55953;51.650;-0.522;2023-02-15T05:16:27;101493.20;;;1.40
68911;BMP180;55953;51.650;-0.522;2023-02-15T05:18:55;101498.20;;;1.30
68911;BMP180;55953;51.650;-0.522;2023-02-15T05:21:23;101491.20;;;1.20
68911;BMP180;55953;51.650;-0.522;2023-02-15T05:23:51;101490.20;;;1.20
68911;BMP180;55953;51.650;-0.522;2023-02-15T05:26:22;101488.80;;;1.20
68911;BMP180;55953;51.650;-0.522;2023-02-15T05:29:10;101486.60;;;1.10
68911;BMP180;55953;51.650;-0.522;2023-02-15T05:31:38;101481.80;;;1.14
68911;BMP180;55953;51.650;-0.522;2023-02-15T05:34:06;101479.40;;;1.20
68911;BMP180;55953;51.650;-0.522;2023-02-15T05:36:34;101484.40;;;1.30
68911;BMP180;55953;51.650;-0.522;2023-02-15T05:39:02;101474.40;;;1.30
68911;BMP180;55953;51.650;-0.522;2023-02-15T05:41:33;101480.40;;;1.30
68911;BMP180;55953;51.650;-0.522;2023-02-15T05:44:01;101482.00;;;1.30
68911;BMP180;55953;51.650;-0.522;2023-02-15T05:46:29;101486.00;;;1.30
68911;BMP180;55953;51.650;-0.522;2023-02-15T05:48:57;101481.20;;;1.30
68911;BMP180;55953;51.650;-0.522;2023-02-15T05:51:25;101473.40;;;1.32
68911;BMP180;55953;51.650;-0.522;2023-02-15T05:53:52;101476.60;;;1.40
68911;BMP180;55953;51.650;-0.522;2023-02-15T05:56:21;101464.60;;;1.58
68911;BMP180;55953;51.650;-0.522;2023-02-15T05:58:49;101458.20;;;1.60
68911;BMP180;55953;51.650;-0.522;2023-02-15T06:01:18;101468.80;;;1.52
68911;BMP180;55953;51.650;-0.522;2023-02-15T06:03:48;101469.80;;;1.50
68911;BMP180;55953;51.650;-0.522;2023-02-15T06:06:17;101459.00;;;1.60
68911;BMP180;55953;51.650;-0.522;2023-02-15T06:08:45;101465.20;;;1.70
68911;BMP180;55953;51.650;-0.522;2023-02-15T06:11:13;101459.80;;;1.60
68911;BMP180;55953;51.650;-0.522;2023-02-15T06:13:41;101456.20;;;1.60
68911;BMP180;55953;51.650;-0.522;2023-02-15T06:16:09;101455.80;;;1.50
68911;BMP180;55953;51.650;-0.522;2023-02-15T06:18:37;101447.60;;;1.50
68911;BMP180;55953;51.650;-0.522;2023-02-15T06:21:05;101450.40;;;1.50
68911;BMP180;55953;51.650;-0.522;2023-02-15T06:23:33;101450.80;;;1.60
68911;BMP180;55953;51.650;-0.522;2023-02-15T06:26:00;101449.00;;;1.60
68911;BMP180;55953;51.650;-0.522;2023-02-15T06:28:29;101442.60;;;1.70
68911;BMP180;55953;51.650;-0.522;2023-02-15T06:30:57;101442.60;;;1.80
68911;BMP180;55953;51.650;-0.522;2023-02-15T06:33:25;101442.80;;;1.80
68911;BMP180;55953;51.650;-0.522;2023-02-15T06:35:53;101440.60;;;1.80
68911;BMP180;55953;51.650;-0.522;2023-02-15T06:38:21;101446.40;;;1.70
68911;BMP180;55953;51.650;-0.522;2023-02-15T06:40:49;101439.40;;;1.70
68911;BMP180;55953;51.650;-0.522;2023-02-15T06:43:17;101438.00;;;1.80
68911;BMP180;55953;51.650;-0.522;2023-02-15T06:45:44;101439.40;;;1.80
68911;BMP180;55953;51.650;-0.522;2023-02-15T06:48:13;101446.20;;;1.80
68911;BMP180;55953;51.650;-0.522;2023-02-15T06:50:41;101447.00;;;1.90
68911;BMP180;55953;51.650;-0.522;2023-02-15T06:53:09;101450.60;;;1.80
68911;BMP180;55953;51.650;-0.522;2023-02-15T06:55:36;101447.20;;;1.90
68911;BMP180;55953;51.650;-0.522;2023-02-15T06:58:04;101452.20;;;1.90
68911;BMP180;55953;51.650;-0.522;2023-02-15T07:00:34;101457.40;;;1.90
68911;BMP180;55953;51.650;-0.522;2023-02-15T07:03:02;101462.00;;;1.90
68911;BMP180;55953;51.650;-0.522;2023-02-15T07:05:34;101461.40;;;1.90
68911;BMP180;55953;51.650;-0.522;2023-02-15T07:08:03;101463.60;;;2.00
68911;BMP180;55953;51.650;-0.522;2023-02-15T07:10:31;101460.60;;;2.10
68911;BMP180;55953;51.650;-0.522;2023-02-15T07:12:59;101466.00;;;2.10
68911;BMP180;55953;51.650;-0.522;2023-02-15T07:15:27;101463.60;;;2.10
68911;BMP180;55953;51.650;-0.522;2023-02-15T07:17:54;101456.20;;;2.10
68911;BMP180;55953;51.650;-0.522;2023-02-15T07:20:23;101462.80;;;2.06
68911;BMP180;55953;51.650;-0.522;2023-02-15T07:22:51;101461.40;;;1.90
68911;BMP180;55953;51.650;-0.522;2023-02-15T07:25:19;101466.60;;;1.90
68911;BMP180;55953;51.650;-0.522;2023-02-15T07:27:48;101469.20;;;1.90
68911;BMP180;55953;51.650;-0.522;2023-02-15T07:30:17;101469.00;;;2.00
68911;BMP180;55953;51.650;-0.522;2023-02-15T07:32:45;101473.60;;;2.04
68911;BMP180;55953;51.650;-0.522;2023-02-15T07:35:33;101476.00;;;2.10
68911;BMP180;55953;51.650;-0.522;2023-02-15T07:38:01;101479.40;;;2.00
68911;BMP180;55953;51.650;-0.522;2023-02-15T07:40:29;101489.60;;;2.02
68911;BMP180;55953;51.650;-0.522;2023-02-15T07:42:58;101489.20;;;2.08
68911;BMP180;55953;51.650;-0.522;2023-02-15T07:45:26;101482.20;;;2.10
68911;BMP180;55953;51.650;-0.522;2023-02-15T07:47:55;101487.80;;;2.26
68911;BMP180;55953;51.650;-0.522;2023-02-15T07:50:23;101487.40;;;2.32
68911;BMP180;55953;51.650;-0.522;2023-02-15T07:52:50;101485.60;;;2.30
68911;BMP180;55953;51.650;-0.522;2023-02-15T07:55:19;101481.40;;;2.42
68911;BMP180;55953;51.650;-0.522;2023-02-15T07:57:49;101482.20;;;2.50
68911;BMP180;55953;51.650;-0.522;2023-02-15T08:00:20;101475.40;;;2.50
68911;BMP180;55953;51.650;-0.522;2023-02-15T08:02:55;101474.80;;;2.50
68911;BMP180;55953;51.650;-0.522;2023-02-15T08:05:44;101481.80;;;2.50
68911;BMP180;55953;51.650;-0.522;2023-02-15T08:08:12;101484.40;;;2.50
68911;BMP180;55953;51.650;-0.522;2023-02-15T08:14:08;101482.40;;;2.70
68911;BMP180;55953;51.650;-0.522;2023-02-15T08:16:55;101477.00;;;2.80
68911;BMP180;55953;51.650;-0.522;2023-02-15T08:19:29;101479.80;;;2.90
68911;BMP180;55953;51.650;-0.522;2023-02-15T08:22:01;101468.40;;;3.00
68911;BMP180;55953;51.650;-0.522;2023-02-15T08:24:35;101464.60;;;3.10
68911;BMP180;55953;51.650;-0.522;2023-02-15T08:27:10;101463.60;;;3.20
68911;BMP180;55953;51.650;-0.522;2023-02-15T08:29:38;101459.80;;;3.20
68911;BMP180;55953;51.650;-0.522;2023-02-15T08:32:10;101460.00;;;3.20
68911;BMP180;55953;51.650;-0.522;2023-02-15T08:34:41;101472.40;;;3.20
68911;BMP180;55953;51.650;-0.522;2023-02-15T08:37:10;101465.80;;;3.30
68911;BMP180;55953;51.650;-0.522;2023-02-15T08:39:39;101466.80;;;3.40
68911;BMP180;55953;51.650;-0.522;2023-02-15T08:42:07;101474.00;;;3.40
68911;BMP180;55953;51.650;-0.522;2023-02-15T08:44:34;101462.40;;;3.60
68911;BMP180;55953;51.650;-0.522;2023-02-15T08:47:02;101472.20;;;3.74
68911;BMP180;55953;51.650;-0.522;2023-02-15T08:49:31;101466.20;;;3.82
68911;BMP180;55953;51.650;-0.522;2023-02-15T08:51:59;101455.40;;;3.90
68911;BMP180;55953;51.650;-0.522;2023-02-15T08:54:27;101455.80;;;3.96
68911;BMP180;55953;51.650;-0.522;2023-02-15T08:56:55;101459.40;;;4.08
68911;BMP180;55953;51.650;-0.522;2023-02-15T08:59:23;101457.60;;;4.20
68911;BMP180;55953;51.650;-0.522;2023-02-15T09:01:53;101455.40;;;4.30
68911;BMP180;55953;51.650;-0.522;2023-02-15T09:04:22;101458.20;;;4.44
68911;BMP180;55953;51.650;-0.522;2023-02-15T09:06:51;101459.00;;;4.52
68911;BMP180;55953;51.650;-0.522;2023-02-15T09:09:19;101454.00;;;4.76
68911;BMP180;55953;51.650;-0.522;2023-02-15T09:11:50;101450.60;;;4.92
68911;BMP180;55953;51.650;-0.522;2023-02-15T09:14:26;101452.00;;;5.20
68911;BMP180;55953;51.650;-0.522;2023-02-15T09:16:54;101446.60;;;5.30
68911;BMP180;55953;51.650;-0.522;2023-02-15T09:19:23;101442.20;;;5.40
68911;BMP180;55953;51.650;-0.522;2023-02-15T09:21:52;101435.60;;;5.50
68911;BMP180;55953;51.650;-0.522;2023-02-15T09:24:20;101437.40;;;5.70
68911;BMP180;55953;51.650;-0.522;2023-02-15T09:26:49;101428.20;;;5.80
68911;BMP180;55953;51.650;-0.522;2023-02-15T09:29:18;101433.80;;;5.90
68911;BMP180;55953;51.650;-0.522;2023-02-15T09:31:50;101431.00;;;6.00
68911;BMP180;55953;51.650;-0.522;2023-02-15T09:34:21;101432.80;;;6.10
68911;BMP180;55953;51.650;-0.522;2023-02-15T09:36:50;101434.40;;;6.20
68911;BMP180;55953;51.650;-0.522;2023-02-15T09:39:22;101429.60;;;6.30
68911;BMP180;55953;51.650;-0.522;2023-02-15T09:45:49;101428.40;;;6.50
68911;BMP180;55953;51.650;-0.522;2023-02-15T09:48:37;101425.60;;;6.68
68911;BMP180;55953;51.650;-0.522;2023-02-15T09:51:52;101426.60;;;6.70
68911;BMP180;55953;51.650;-0.522;2023-02-15T09:54:50;101425.00;;;6.70
68911;BMP180;55953;51.650;-0.522;2023-02-15T10:06:48;101432.60;;;7.00
68911;BMP180;55953;51.650;-0.522;2023-02-15T10:19:54;101439.40;;;7.20
68911;BMP180;55953;51.650;-0.522;2023-02-15T10:27:49;101439.00;;;7.48
68911;BMP180;55953;51.650;-0.522;2023-02-15T10:30:41;101435.40;;;7.58
68911;BMP180;55953;51.650;-0.522;2023-02-15T10:33:40;101438.20;;;7.70
68911;BMP180;55953;51.650;-0.522;2023-02-15T10:43:15;101421.40;;;8.10
68911;BMP180;55953;51.650;-0.522;2023-02-15T10:57:34;101409.00;;;8.80
68911;BMP180;55953;51.650;-0.522;2023-02-15T11:00:22;101397.40;;;8.90
68911;BMP180;55953;51.650;-0.522;2023-02-15T11:03:02;101393.20;;;9.00
68911;BMP180;55953;51.650;-0.522;2023-02-15T11:08:18;101385.40;;;9.18
68911;BMP180;55953;51.650;-0.522;2023-02-15T11:10:54;101379.40;;;9.20
68911;BMP180;55953;51.650;-0.522;2023-02-15T11:13:26;101377.00;;;9.30
68911;BMP180;55953;51.650;-0.522;2023-02-15T11:16:03;101372.20;;;9.38
68911;BMP180;55953;51.650;-0.522;2023-02-15T11:18:41;101370.20;;;9.46
68911;BMP180;55953;51.650;-0.522;2023-02-15T11:21:33;101367.20;;;9.60
68911;BMP180;55953;51.650;-0.522;2023-02-15T11:24:16;101366.20;;;9.70
68911;BMP180;55953;51.650;-0.522;2023-02-15T11:27:03;101370.60;;;9.70
68911;BMP180;55953;51.650;-0.522;2023-02-15T11:29:41;101375.00;;;9.78
68911;BMP180;55953;51.650;-0.522;2023-02-15T11:35:03;101369.20;;;10.00
68911;BMP180;55953;51.650;-0.522;2023-02-15T11:41:12;101381.20;;;10.26
68911;BMP180;55953;51.650;-0.522;2023-02-15T11:46:19;101355.80;;;10.50
68911;BMP180;55953;51.650;-0.522;2023-02-15T11:48:49;101364.80;;;10.60
68911;BMP180;55953;51.650;-0.522;2023-02-15T11:51:21;101358.60;;;10.68
68911;BMP180;55953;51.650;-0.522;2023-02-15T11:53:51;101345.20;;;10.80
68911;BMP180;55953;51.650;-0.522;2023-02-15T11:56:23;101331.80;;;10.90
68911;BMP180;55953;51.650;-0.522;2023-02-15T11:59:14;101332.20;;;11.00
68911;BMP180;55953;51.650;-0.522;2023-02-15T12:01:46;101327.00;;;11.10
68911;BMP180;55953;51.650;-0.522;2023-02-15T12:04:28;101319.60;;;11.20
68911;BMP180;55953;51.650;-0.522;2023-02-15T12:07:04;101315.60;;;11.30
68911;BMP180;55953;51.650;-0.522;2023-02-15T12:12:40;101314.00;;;11.58
68911;BMP180;55953;51.650;-0.522;2023-02-15T12:15:11;101319.20;;;11.70
68911;BMP180;55953;51.650;-0.522;2023-02-15T12:17:49;101315.00;;;11.80
68911;BMP180;55953;51.650;-0.522;2023-02-15T12:22:54;101312.60;;;11.90
68911;BMP180;55953;51.650;-0.522;2023-02-15T12:25:54;101307.80;;;12.10
68911;BMP180;55953;51.650;-0.522;2023-02-15T12:28:44;101307.40;;;12.14
68911;BMP180;55953;51.650;-0.522;2023-02-15T12:31:25;101307.40;;;12.20
68911;BMP180;55953;51.650;-0.522;2023-02-15T12:33:57;101305.60;;;12.30
68911;BMP180;55953;51.650;-0.522;2023-02-15T12:36:42;101302.60;;;12.40
68911;BMP180;55953;51.650;-0.522;2023-02-15T12:45:20;101298.40;;;12.82
68911;BMP180;55953;51.650;-0.522;2023-02-15T12:49:44;101287.20;;;13.10
68911;BMP180;55953;51.650;-0.522;2023-02-15T12:54:46;101274.00;;;13.40
68911;BMP180;55953;51.650;-0.522;2023-02-15T12:57:32;101266.40;;;13.50
68911;BMP180;55953;51.650;-0.522;2023-02-15T13:00:05;101264.80;;;13.60
68911;BMP180;55953;51.650;-0.522;2023-02-15T13:02:49;101270.80;;;13.70
68911;BMP180;55953;51.650;-0.522;2023-02-15T13:05:36;101261.40;;;13.82
68911;BMP180;55953;51.650;-0.522;2023-02-15T13:08:19;101269.80;;;13.98
68911;BMP180;55953;51.650;-0.522;2023-02-15T13:11:02;101273.40;;;14.10
68911;BMP180;55953;51.650;-0.522;2023-02-15T13:13:35;101259.20;;;14.16
68911;BMP180;55953;51.650;-0.522;2023-02-15T13:16:14;101257.00;;;14.20
68911;BMP180;55953;51.650;-0.522;2023-02-15T13:18:45;101251.00;;;14.28
68911;BMP180;55953;51.650;-0.522;2023-02-15T13:21:25;101243.00;;;14.22
68911;BMP180;55953;51.650;-0.522;2023-02-15T13:24:06;101243.40;;;14.20
68911;BMP180;55953;51.650;-0.522;2023-02-15T13:26:39;101248.20;;;14.20
68911;BMP180;55953;51.650;-0.522;2023-02-15T13:29:22;101245.60;;;14.20
68911;BMP180;55953;51.650;-0.522;2023-02-15T13:31:53;101243.20;;;14.22
68911;BMP180;55953;51.650;-0.522;2023-02-15T13:34:35;101237.20;;;14.20
68911;BMP180;55953;51.650;-0.522;2023-02-15T13:40:33;101244.80;;;14.30
68911;BMP180;55953;51.650;-0.522;2023-02-15T13:43:25;101250.80;;;14.26
68911;BMP180;55953;51.650;-0.522;2023-02-15T13:49:35;101246.20;;;14.30
68911;BMP180;55953;51.650;-0.522;2023-02-15T13:52:22;101250.20;;;14.30
68911;BMP180;55953;51.650;-0.522;2023-02-15T14:03:40;101226.00;;;14.30
68911;BMP180;55953;51.650;-0.522;2023-02-15T14:06:51;101219.80;;;14.40
68911;BMP180;55953;51.650;-0.522;2023-02-15T14:21:34;101211.00;;;14.50
68911;BMP180;55953;51.650;-0.522;2023-02-15T14:26:49;101203.60;;;14.66
68911;BMP180;55953;51.650;-0.522;2023-02-15T14:29:50;101216.80;;;14.70
68911;BMP180;55953;51.650;-0.522;2023-02-15T14:32:22;101215.40;;;14.70
68911;BMP180;55953;51.650;-0.522;2023-02-15T14:34:56;101219.20;;;14.68
68911;BMP180;55953;51.650;-0.522;2023-02-15T14:46:48;101211.60;;;14.64
68911;BMP180;55953;51.650;-0.522;2023-02-15T14:49:27;101211.40;;;14.60
68911;BMP180;55953;51.650;-0.522;2023-02-15T14:52:06;101205.60;;;14.60
68911;BMP180;55953;51.650;-0.522;2023-02-15T15:02:45;101210.40;;;14.60
68911;BMP180;55953;51.650;-0.522;2023-02-15T15:05:33;101222.00;;;14.60
68911;BMP180;55953;51.650;-0.522;2023-02-15T15:08:04;101215.60;;;14.60
68911;BMP180;55953;51.650;-0.522;2023-02-15T15:10:45;101221.60;;;14.60
68911;BMP180;55953;51.650;-0.522;2023-02-15T15:13:53;101218.40;;;14.60
68911;BMP180;55953;51.650;-0.522;2023-02-15T15:19:10;101217.60;;;14.46
68911;BMP180;55953;51.650;-0.522;2023-02-15T15:27:45;101221.40;;;14.30
68911;BMP180;55953;51.650;-0.522;2023-02-15T15:36:15;101224.80;;;14.20
68911;BMP180;55953;51.650;-0.522;2023-02-15T15:39:04;101225.40;;;14.20
68911;BMP180;55953;51.650;-0.522;2023-02-15T15:41:48;101222.40;;;14.16
68911;BMP180;55953;51.650;-0.522;2023-02-15T15:50:13;101227.80;;;13.98
68911;BMP180;55953;51.650;-0.522;2023-02-15T15:52:50;101233.60;;;13.90
68911;BMP180;55953;51.650;-0.522;2023-02-15T15:55:23;101233.40;;;13.82
68911;BMP180;55953;51.650;-0.522;2023-02-15T15:58:04;101239.60;;;13.80
68911;BMP180;55953;51.650;-0.522;2023-02-15T16:00:40;101241.00;;;13.70
68911;BMP180;55953;51.650;-0.522;2023-02-15T16:03:22;101233.20;;;13.60
68911;BMP180;55953;51.650;-0.522;2023-02-15T16:05:50;101233.20;;;13.50
68911;BMP180;55953;51.650;-0.522;2023-02-15T16:08:34;101238.00;;;13.40
68911;BMP180;55953;51.650;-0.522;2023-02-15T16:11:13;101234.40;;;13.30
68911;BMP180;55953;51.650;-0.522;2023-02-15T16:13:43;101235.80;;;13.20
68911;BMP180;55953;51.650;-0.522;2023-02-15T16:16:13;101235.60;;;13.18
68911;BMP180;55953;51.650;-0.522;2023-02-15T16:18:47;101232.60;;;13.10
68911;BMP180;55953;51.650;-0.522;2023-02-15T16:21:22;101235.20;;;13.00
68911;BMP180;55953;51.650;-0.522;2023-02-15T16:29:32;101235.80;;;12.90
68911;BMP180;55953;51.650;-0.522;2023-02-15T16:32:23;101236.80;;;12.90
68911;BMP180;55953;51.650;-0.522;2023-02-15T16:35:01;101232.00;;;12.88
68911;BMP180;55953;51.650;-0.522;2023-02-15T16:37:34;101229.60;;;12.80
68911;BMP180;55953;51.650;-0.522;2023-02-15T16:40:02;101231.00;;;12.80
68911;BMP180;55953;51.650;-0.522;2023-02-15T16:42:30;101226.40;;;12.80
68911;BMP180;55953;51.650;-0.522;2023-02-15T16:45:06;101221.80;;;12.80
68911;BMP180;55953;51.650;-0.522;2023-02-15T16:47:41;101216.60;;;12.76
68911;BMP180;55953;51.650;-0.522;2023-02-15T16:50:20;101215.60;;;12.70
68911;BMP180;55953;51.650;-0.522;2023-02-15T16:52:52;101222.80;;;12.68
68911;BMP180;55953;51.650;-0.522;2023-02-15T16:55:24;101221.60;;;12.60
68911;BMP180;55953;51.650;-0.522;2023-02-15T16:57:59;101228.60;;;12.60
68911;BMP180;55953;51.650;-0.522;2023-02-15T17:00:34;101224.60;;;12.60
68911;BMP180;55953;51.650;-0.522;2023-02-15T17:03:05;101224.40;;;12.50
68911;BMP180;55953;51.650;-0.522;2023-02-15T17:05:50;101222.80;;;12.48
68911;BMP180;55953;51.650;-0.522;2023-02-15T17:08:33;101223.20;;;12.40
68911;BMP180;55953;51.650;-0.522;2023-02-15T17:13:38;101226.40;;;12.30
68911;BMP180;55953;51.650;-0.522;2023-02-15T17:16:27;101219.40;;;12.30
68911;BMP180;55953;51.650;-0.522;2023-02-15T17:18:56;101229.80;;;12.20
68911;BMP180;55953;51.650;-0.522;2023-02-15T17:21:39;101238.20;;;12.20
68911;BMP180;55953;51.650;-0.522;2023-02-15T17:24:23;101235.40;;;12.20
68911;BMP180;55953;51.650;-0.522;2023-02-15T17:26:57;101235.80;;;12.10
68911;BMP180;55953;51.650;-0.522;2023-02-15T17:29:36;101233.80;;;12.10
68911;BMP180;55953;51.650;-0.522;2023-02-15T17:32:16;101226.40;;;12.10
68911;BMP180;55953;51.650;-0.522;2023-02-15T17:40:27;101225.00;;;12.06
68911;BMP180;55953;51.650;-0.522;2023-02-15T17:42:55;101225.20;;;12.00
68911;BMP180;55953;51.650;-0.522;2023-02-15T17:45:47;101229.20;;;12.00
68911;BMP180;55953;51.650;-0.522;2023-02-15T17:48:29;101231.80;;;11.90